createdAt,value
2018-07-20T00:00:04.035Z,10.87
2018-07-20T00:02:31.635Z,12.53
2018-07-20T00:04:59.269Z,13.63
2018-07-20T00:07:26.995Z,14.03
2018-07-20T00:09:54.649Z,13.60
2018-07-20T00:12:22.345Z,13.30
2018-07-20T00:14:50.031Z,12.60
2018-07-20T00:17:17.673Z,12.77
2018-07-20T00:19:45.377Z,13.47
2018-07-20T00:22:13.074Z,13.30
2018-07-20T00:24:40.793Z,12.97
2018-07-20T00:27:08.433Z,12.23
2018-07-20T00:29:36.071Z,13.87
2018-07-20T00:32:03.710Z,13.03
2018-07-20T00:34:31.326Z,12.30
2018-07-20T00:37:03.627Z,12.20
2018-07-20T00:39:31.258Z,14.33
2018-07-20T00:41:58.890Z,12.80
2018-07-20T00:44:26.578Z,13.00
2018-07-20T00:46:54.302Z,13.07
2018-07-20T00:49:21.974Z,11.40
2018-07-20T00:51:49.642Z,11.37
2018-07-20T00:54:17.320Z,14.87
2018-07-20T00:56:44.994Z,14.90
2018-07-20T00:59:12.641Z,14.23
2018-07-20T01:01:40.329Z,12.17
2018-07-20T01:04:07.993Z,12.00
2018-07-20T01:06:35.628Z,12.57
2018-07-20T01:09:05.190Z,12.13
2018-07-20T01:11:32.924Z,11.70
2018-07-20T01:14:00.599Z,12.53
2018-07-20T01:16:28.265Z,13.97
2018-07-20T01:18:55.939Z,12.43
2018-07-20T01:21:23.597Z,12.90
2018-07-20T01:23:51.253Z,13.60
2018-07-20T01:26:18.961Z,12.77
2018-07-20T01:28:46.648Z,11.70
2018-07-20T01:31:14.282Z,12.87
2018-07-20T01:33:41.974Z,11.80
2018-07-20T01:36:09.645Z,11.60
2018-07-20T01:38:37.264Z,11.53
2018-07-20T01:41:04.986Z,13.70
2018-07-20T01:43:32.611Z,16.17
2018-07-20T01:46:00.261Z,17.20
2018-07-20T01:48:27.986Z,14.57
2018-07-20T01:50:55.690Z,13.73
2018-07-20T01:53:23.332Z,13.47
2018-07-20T01:55:50.986Z,14.33
2018-07-20T01:58:18.764Z,14.00
2018-07-20T02:00:46.592Z,13.30
2018-07-20T02:03:14.259Z,14.27
2018-07-20T02:05:41.998Z,11.47
2018-07-20T02:08:09.648Z,12.80
2018-07-20T02:10:37.300Z,12.37
2018-07-20T02:13:05.086Z,13.13
2018-07-20T02:15:32.693Z,12.13
2018-07-20T02:18:00.333Z,13.60
2018-07-20T02:20:27.938Z,12.43
2018-07-20T02:22:55.617Z,13.30
2018-07-20T02:25:23.292Z,14.30
2018-07-20T02:27:51.070Z,14.17
2018-07-20T02:30:18.701Z,14.00
2018-07-20T02:32:46.299Z,14.97
2018-07-20T02:35:13.891Z,13.23
2018-07-20T02:37:41.504Z,12.70
2018-07-20T02:40:09.275Z,11.90
2018-07-20T02:42:36.885Z,12.53
2018-07-20T02:45:05.055Z,13.33
2018-07-20T02:47:32.787Z,12.63
2018-07-20T02:50:00.432Z,14.40
2018-07-20T02:52:28.116Z,14.23
2018-07-20T02:54:55.810Z,13.70
2018-07-20T02:57:23.540Z,14.90
2018-07-20T02:59:51.294Z,12.70
2018-07-20T03:02:18.968Z,13.40
2018-07-20T03:04:46.656Z,13.13
2018-07-20T03:07:14.396Z,12.50
2018-07-20T03:09:42.146Z,12.43
2018-07-20T03:12:10.122Z,13.50
2018-07-20T03:14:38.748Z,13.17
2018-07-20T03:17:06.434Z,10.90
2018-07-20T03:19:34.084Z,12.40
2018-07-20T03:22:01.766Z,12.23
2018-07-20T03:24:29.434Z,12.77
2018-07-20T03:26:57.127Z,11.33
2018-07-20T03:29:24.780Z,12.73
2018-07-20T03:31:52.512Z,11.43
2018-07-20T03:34:20.223Z,12.07
2018-07-20T03:36:47.911Z,11.90
2018-07-20T03:39:15.561Z,12.10
2018-07-20T03:41:43.225Z,11.27
2018-07-20T03:44:11.904Z,11.03
2018-07-20T03:46:39.771Z,12.33
2018-07-20T03:49:07.444Z,10.90
2018-07-20T03:51:35.132Z,10.90
2018-07-20T03:54:02.799Z,11.70
2018-07-20T03:56:30.499Z,10.57
2018-07-20T03:58:58.160Z,10.27
2018-07-20T04:01:25.850Z,10.10
2018-07-20T04:03:53.543Z,10.27
2018-07-20T04:06:21.146Z,9.90
2018-07-20T04:08:48.831Z,9.67
2018-07-20T04:11:16.512Z,10.40
2018-07-20T04:13:45.316Z,10.33
2018-07-20T04:16:13.025Z,9.63
2018-07-20T04:18:40.796Z,10.13
2018-07-20T04:21:08.406Z,10.10
2018-07-20T04:23:36.087Z,11.70
2018-07-20T04:26:03.857Z,9.93
2018-07-20T04:28:31.571Z,9.03
2018-07-20T04:33:33.614Z,9.20
2018-07-20T04:36:01.285Z,9.20
2018-07-20T04:38:28.914Z,8.60
2018-07-20T04:40:56.636Z,9.13
2018-07-20T04:43:24.268Z,8.83
2018-07-20T04:45:51.898Z,10.40
2018-07-20T04:48:19.594Z,9.17
2018-07-20T04:50:47.359Z,9.53
2018-07-20T04:53:15.062Z,9.90
2018-07-20T04:55:42.746Z,10.70
2018-07-20T04:58:10.462Z,9.00
2018-07-20T05:00:38.174Z,8.80
2018-07-20T05:03:06.752Z,9.80
2018-07-20T05:05:34.483Z,8.43
2018-07-20T05:08:02.177Z,8.47
2018-07-20T05:10:29.789Z,8.30
2018-07-20T05:12:57.395Z,9.30
2018-07-20T05:15:25.305Z,8.87
2018-07-20T05:17:53.079Z,9.53
2018-07-20T05:20:20.944Z,10.40
2018-07-20T05:22:48.567Z,8.50
2018-07-20T05:25:16.225Z,11.13
2018-07-20T05:27:43.971Z,9.43
2018-07-20T05:30:11.668Z,9.27
2018-07-20T05:32:39.375Z,9.30
2018-07-20T05:35:07.051Z,9.83
2018-07-20T05:37:34.818Z,9.27
2018-07-20T05:40:02.571Z,8.67
2018-07-20T05:42:30.452Z,9.73
2018-07-20T05:44:58.185Z,8.70
2018-07-20T05:47:25.956Z,9.10
2018-07-20T05:49:53.713Z,8.30
2018-07-20T05:52:21.342Z,9.53
2018-07-20T05:54:48.970Z,8.30
2018-07-20T05:57:17.032Z,8.40
2018-07-20T05:59:46.239Z,8.07
2018-07-20T06:02:14.478Z,9.60
2018-07-20T06:04:42.338Z,36.53
2018-07-20T06:07:10.210Z,7.87
2018-07-20T06:09:37.932Z,9.27
2018-07-20T06:12:06.342Z,8.67
2018-07-20T06:14:34.190Z,6.97
2018-07-20T06:17:01.886Z,8.07
2018-07-20T06:19:29.549Z,15.47
2018-07-20T06:21:57.207Z,10.60
2018-07-20T06:24:25.173Z,8.30
2018-07-20T06:26:52.881Z,7.63
2018-07-20T06:29:20.636Z,6.60
2018-07-20T06:31:48.345Z,7.57
2018-07-20T06:34:16.095Z,6.77
2018-07-20T06:36:43.969Z,8.10
2018-07-20T06:39:29.924Z,8.03
2018-07-20T06:41:57.922Z,7.90
2018-07-20T06:44:25.681Z,9.07
2018-07-20T06:46:53.393Z,8.47
2018-07-20T06:49:21.158Z,6.93
2018-07-20T06:51:48.944Z,7.67
2018-07-20T06:54:16.745Z,7.63
2018-07-20T06:56:44.573Z,8.43
2018-07-20T06:59:12.349Z,7.73
2018-07-20T07:01:40.034Z,6.93
2018-07-20T07:04:07.824Z,7.90
2018-07-20T07:06:35.493Z,8.30
2018-07-20T07:09:06.046Z,8.23
2018-07-20T07:11:33.912Z,7.30
2018-07-20T07:14:01.621Z,8.00
2018-07-20T07:16:29.337Z,7.70
2018-07-20T07:18:57.039Z,6.87
2018-07-20T07:21:24.747Z,6.50
2018-07-20T07:23:52.461Z,7.77
2018-07-20T07:26:20.217Z,5.90
2018-07-20T07:28:47.929Z,5.40
2018-07-20T07:31:15.654Z,5.73
2018-07-20T07:33:43.380Z,5.73
2018-07-20T07:36:11.112Z,5.60
2018-07-20T07:38:38.919Z,4.77
2018-07-20T07:41:06.698Z,4.00
2018-07-20T07:43:34.414Z,4.13
2018-07-20T07:46:02.152Z,4.03
2018-07-20T07:48:29.900Z,4.27
2018-07-20T07:50:57.562Z,4.10
2018-07-20T07:53:25.160Z,3.80
2018-07-20T07:55:53.039Z,3.27
2018-07-20T07:58:20.836Z,3.10
2018-07-20T08:00:48.538Z,3.90
2018-07-20T08:03:16.234Z,3.23
2018-07-20T08:05:43.922Z,3.23
2018-07-20T08:08:11.738Z,3.43
2018-07-20T08:10:39.473Z,3.37
2018-07-20T08:13:07.193Z,2.80
2018-07-20T08:15:34.967Z,3.73
2018-07-20T08:18:02.847Z,2.87
2018-07-20T08:20:30.660Z,3.40
2018-07-20T08:22:58.553Z,2.90
2018-07-20T08:25:26.117Z,3.60
2018-07-20T08:27:53.803Z,4.27
2018-07-20T08:30:21.560Z,3.60
2018-07-20T08:32:49.341Z,3.50
2018-07-20T08:35:17.117Z,3.70
2018-07-20T08:37:44.935Z,3.47
2018-07-20T08:40:12.741Z,3.87
2018-07-20T08:42:40.485Z,4.10
2018-07-20T08:45:08.176Z,4.37
2018-07-20T08:47:35.923Z,3.90
2018-07-20T08:50:04.143Z,4.23
2018-07-20T08:52:32.057Z,5.03
2018-07-20T08:54:59.734Z,4.50
2018-07-20T08:57:27.550Z,4.93
2018-07-20T08:59:56.240Z,4.00
2018-07-20T09:02:23.925Z,5.47
2018-07-20T09:04:51.659Z,4.40
2018-07-20T09:07:19.464Z,4.10
2018-07-20T09:09:47.160Z,4.90
2018-07-20T09:12:15.009Z,4.20
2018-07-20T09:14:42.693Z,4.43
2018-07-20T09:17:10.346Z,4.70
2018-07-20T09:19:38.172Z,4.53
2018-07-20T09:22:05.896Z,4.70
2018-07-20T09:24:34.050Z,5.57
2018-07-20T09:27:01.755Z,4.43
2018-07-20T09:29:29.554Z,4.70
2018-07-20T09:31:57.378Z,4.57
2018-07-20T09:34:25.300Z,4.40
2018-07-20T09:36:52.960Z,4.90
2018-07-20T09:39:20.781Z,4.70
2018-07-20T09:41:48.557Z,4.63
2018-07-20T09:44:16.350Z,4.70
2018-07-20T09:46:44.002Z,5.50
2018-07-20T09:49:11.856Z,4.40
2018-07-20T09:51:39.517Z,4.10
2018-07-20T09:54:07.244Z,5.13
2018-07-20T09:56:34.973Z,4.63
2018-07-20T09:59:02.664Z,4.17
2018-07-20T10:01:30.337Z,4.73
2018-07-20T10:03:58.275Z,4.40
2018-07-20T10:06:26.007Z,4.20
2018-07-20T10:08:53.677Z,4.00
2018-07-20T10:11:21.319Z,3.73
2018-07-20T10:13:49.105Z,3.60
2018-07-20T10:16:16.719Z,3.30
2018-07-20T10:18:44.310Z,4.20
2018-07-20T10:21:11.934Z,4.07
2018-07-20T10:23:39.829Z,3.00
2018-07-20T10:26:07.543Z,3.77
2018-07-20T10:28:35.075Z,3.90
2018-07-20T10:31:02.724Z,3.93
2018-07-20T10:33:30.330Z,4.30
2018-07-20T10:35:57.922Z,3.40
2018-07-20T10:38:25.549Z,3.80
2018-07-20T10:40:53.448Z,3.93
2018-07-20T10:43:21.187Z,3.90
2018-07-20T10:45:48.833Z,4.03
2018-07-20T10:48:16.641Z,3.77
2018-07-20T10:50:44.363Z,4.30
2018-07-20T10:53:12.000Z,4.80
2018-07-20T10:55:39.633Z,3.97
2018-07-20T10:58:07.351Z,4.77
2018-07-20T11:00:34.996Z,3.60
2018-07-20T11:03:02.701Z,4.33
2018-07-20T11:05:30.363Z,3.40
2018-07-20T11:07:58.047Z,4.43
2018-07-20T11:10:25.725Z,3.83
2018-07-20T11:12:53.396Z,4.30
2018-07-20T11:15:21.079Z,4.37
2018-07-20T11:17:48.716Z,3.83
2018-07-20T11:20:16.628Z,3.57
2018-07-20T11:22:44.351Z,3.50
2018-07-20T11:25:12.000Z,3.10
2018-07-20T11:27:39.690Z,3.87
2018-07-20T11:30:07.457Z,4.07
2018-07-20T11:32:35.326Z,4.10
2018-07-20T11:35:03.107Z,4.43
2018-07-20T11:37:30.854Z,3.10
2018-07-20T11:39:58.500Z,4.30
2018-07-20T11:42:26.159Z,3.73
2018-07-20T11:44:53.850Z,3.50
2018-07-20T11:47:21.583Z,3.67
2018-07-20T11:49:49.686Z,3.27
2018-07-20T11:52:17.295Z,3.83
2018-07-20T11:54:45.051Z,3.90
2018-07-20T11:57:12.713Z,3.27
2018-07-20T11:59:40.274Z,3.50
2018-07-20T12:02:07.863Z,3.70
2018-07-20T12:04:35.556Z,3.17
2018-07-20T12:07:03.350Z,4.10
2018-07-20T12:09:31.003Z,3.50
2018-07-20T12:11:58.578Z,3.47
2018-07-20T12:14:26.180Z,3.87
2018-07-20T12:16:53.850Z,3.33
2018-07-20T12:19:21.506Z,3.83
2018-07-20T12:21:49.129Z,2.80
2018-07-20T12:24:16.790Z,2.70
2018-07-20T12:26:44.387Z,3.00
2018-07-20T12:29:12.016Z,3.27
2018-07-20T12:31:39.705Z,2.80
2018-07-20T12:34:07.359Z,2.13
2018-07-20T12:36:34.894Z,2.27
2018-07-20T12:39:02.695Z,2.33
2018-07-20T12:41:30.327Z,2.37
2018-07-20T12:43:58.017Z,2.17
2018-07-20T12:46:25.683Z,2.20
2018-07-20T12:48:53.235Z,2.00
2018-07-20T12:51:20.883Z,1.90
2018-07-20T12:53:48.561Z,2.10
2018-07-20T12:56:16.191Z,2.47
2018-07-20T12:58:44.136Z,3.50
2018-07-20T13:01:11.728Z,2.80
2018-07-20T13:03:39.485Z,2.53
2018-07-20T13:06:07.163Z,3.10
2018-07-20T13:08:34.766Z,3.10
2018-07-20T13:11:02.393Z,2.90
2018-07-20T13:13:30.121Z,2.70
2018-07-20T13:15:57.836Z,3.20
2018-07-20T13:18:25.488Z,2.00
2018-07-20T13:20:53.297Z,2.20
2018-07-20T13:23:21.028Z,2.53
2018-07-20T13:25:48.666Z,2.70
2018-07-20T13:28:16.322Z,2.90
2018-07-20T13:30:44.569Z,2.47
2018-07-20T13:33:12.491Z,2.30
2018-07-20T13:35:40.084Z,2.50
2018-07-20T13:38:07.815Z,2.70
2018-07-20T13:40:35.511Z,2.37
2018-07-20T13:43:03.147Z,2.73
2018-07-20T13:45:30.922Z,2.80
2018-07-20T13:47:58.599Z,2.80
2018-07-20T13:50:26.331Z,2.20
2018-07-20T13:52:54.127Z,2.77
2018-07-20T13:55:21.743Z,2.80
2018-07-20T13:57:49.428Z,3.00
2018-07-20T14:00:17.156Z,3.10
2018-07-20T14:02:44.831Z,3.33
2018-07-20T14:05:12.568Z,3.83
2018-07-20T14:07:40.298Z,3.10
2018-07-20T14:10:07.989Z,3.20
2018-07-20T14:12:35.587Z,2.97
2018-07-20T14:15:03.760Z,2.83
2018-07-20T14:17:31.392Z,2.80
2018-07-20T14:19:59.735Z,2.37
2018-07-20T14:22:27.441Z,2.20
2018-07-20T14:24:55.280Z,2.67
2018-07-20T14:27:22.932Z,2.40
2018-07-20T14:29:50.611Z,2.50
2018-07-20T14:32:18.264Z,2.10
2018-07-20T14:34:45.879Z,2.53
2018-07-20T14:37:13.465Z,2.30
2018-07-20T14:39:41.113Z,2.60
2018-07-20T14:42:09.457Z,2.57
2018-07-20T14:44:37.158Z,2.70
2018-07-20T14:47:04.792Z,2.97
2018-07-20T14:49:32.448Z,3.20
2018-07-20T14:52:00.155Z,3.17
2018-07-20T14:54:27.807Z,2.80
2018-07-20T14:56:55.382Z,2.40
2018-07-20T14:59:23.015Z,3.00
2018-07-20T15:01:50.679Z,3.47
2018-07-20T15:04:18.405Z,2.53
2018-07-20T15:06:46.125Z,3.40
2018-07-20T15:09:13.812Z,2.23
2018-07-20T15:11:41.497Z,2.57
2018-07-20T15:14:09.531Z,2.60
2018-07-20T15:16:37.220Z,2.80
2018-07-20T15:19:04.963Z,2.30
2018-07-20T15:21:32.784Z,2.53
2018-07-20T15:24:00.529Z,2.90
2018-07-20T15:26:28.180Z,3.07
2018-07-20T15:28:55.822Z,2.80
2018-07-20T15:31:23.525Z,2.97
2018-07-20T15:33:51.156Z,3.07
2018-07-20T15:36:18.807Z,2.60
2018-07-20T15:38:46.511Z,2.60
2018-07-20T15:41:14.126Z,3.13
2018-07-20T15:43:41.788Z,2.80
2018-07-20T15:46:09.920Z,2.33
2018-07-20T15:48:37.525Z,3.10
2018-07-20T15:51:05.193Z,3.03
2018-07-20T15:53:37.048Z,2.33
2018-07-20T15:56:00.464Z,2.57
2018-07-20T15:58:28.696Z,2.07
2018-07-20T16:00:56.338Z,2.30
2018-07-20T16:03:24.011Z,1.80
2018-07-20T16:05:51.701Z,2.40
2018-07-20T16:08:19.402Z,2.40
2018-07-20T16:10:47.194Z,2.17
2018-07-20T16:13:14.837Z,2.47
2018-07-20T16:15:42.477Z,2.50
2018-07-20T16:18:10.129Z,2.60
2018-07-20T16:20:37.802Z,2.83
2018-07-20T16:23:05.481Z,3.00
2018-07-20T16:25:33.136Z,2.90
2018-07-20T16:28:00.805Z,3.20
2018-07-20T16:30:28.466Z,2.60
2018-07-20T16:32:56.180Z,3.03
2018-07-20T16:35:23.828Z,3.50
2018-07-20T16:37:51.496Z,2.93
2018-07-20T16:40:19.185Z,3.20
2018-07-20T16:42:46.771Z,4.10
2018-07-20T16:45:14.396Z,3.93
2018-07-20T16:47:42.112Z,3.63
2018-07-20T16:50:10.028Z,3.70
2018-07-20T16:52:37.641Z,3.50
2018-07-20T16:55:05.258Z,3.10
2018-07-20T16:57:32.798Z,3.43
2018-07-20T17:00:00.459Z,3.00
2018-07-20T17:02:28.091Z,3.10
2018-07-20T17:04:55.746Z,3.40
2018-07-20T17:07:23.451Z,3.30
2018-07-20T17:09:51.087Z,3.30
2018-07-20T17:12:18.737Z,4.60
2018-07-20T17:14:46.351Z,3.90
2018-07-20T17:17:14.033Z,3.53
2018-07-20T17:19:41.953Z,3.33
2018-07-20T17:22:09.629Z,3.37
2018-07-20T17:24:37.280Z,3.60
2018-07-20T17:27:05.092Z,3.70
2018-07-20T17:29:32.748Z,3.53
2018-07-20T17:32:00.445Z,3.80
2018-07-20T17:34:28.179Z,3.63
2018-07-20T17:36:55.777Z,4.07
2018-07-20T17:39:23.502Z,5.33
2018-07-20T17:41:51.196Z,3.70
2018-07-20T17:44:18.857Z,4.30
2018-07-20T17:46:46.497Z,4.80
2018-07-20T17:49:16.947Z,4.33
2018-07-20T17:51:44.593Z,4.50
2018-07-20T17:54:12.302Z,4.73
2018-07-20T17:56:39.890Z,4.77
2018-07-20T17:59:07.567Z,4.60
2018-07-20T18:01:35.234Z,4.50
2018-07-20T18:04:02.958Z,4.83
2018-07-20T18:06:30.879Z,4.90
2018-07-20T18:08:58.638Z,4.63
2018-07-20T18:11:26.305Z,5.43
2018-07-20T18:13:53.937Z,5.97
2018-07-20T18:16:21.589Z,6.60
2018-07-20T18:18:49.421Z,5.80
2018-07-20T18:21:17.089Z,5.10
2018-07-20T18:23:44.969Z,5.57
2018-07-20T18:26:12.655Z,7.23
2018-07-20T18:28:40.434Z,6.23
2018-07-20T18:31:08.223Z,6.90
2018-07-20T18:33:35.952Z,6.13
2018-07-20T18:36:03.633Z,5.80
2018-07-20T18:38:31.334Z,7.77
2018-07-20T18:40:59.039Z,8.20
2018-07-20T18:43:26.671Z,6.50
2018-07-20T18:45:54.299Z,6.73
2018-07-20T18:48:22.002Z,5.90
2018-07-20T18:50:49.656Z,5.50
2018-07-20T18:53:17.328Z,6.20
2018-07-20T18:55:45.014Z,6.90
2018-07-20T18:58:12.790Z,6.07
2018-07-20T19:00:40.548Z,6.60
2018-07-20T19:03:08.311Z,6.70
2018-07-20T19:05:35.966Z,6.33
2018-07-20T19:08:03.759Z,8.80
2018-07-20T19:10:31.477Z,7.00
2018-07-20T19:12:59.167Z,6.33
2018-07-20T19:15:26.949Z,6.53
2018-07-20T19:17:54.630Z,7.00
2018-07-20T19:20:22.347Z,6.00
2018-07-20T19:22:49.979Z,7.03
2018-07-20T19:25:17.645Z,7.17
2018-07-20T19:27:45.310Z,6.80
2018-07-20T19:30:13.035Z,7.00
2018-07-20T19:32:40.887Z,8.80
2018-07-20T19:35:08.626Z,8.53
2018-07-20T19:37:36.513Z,9.03
2018-07-20T19:40:04.290Z,8.27
2018-07-20T19:42:32.081Z,9.00
2018-07-20T19:44:59.672Z,10.47
2018-07-20T19:47:27.334Z,8.43
2018-07-20T19:49:54.998Z,7.50
2018-07-20T19:52:22.631Z,11.60
2018-07-20T19:54:50.310Z,9.10
2018-07-20T19:57:17.942Z,7.73
2018-07-20T19:59:45.555Z,22.77
2018-07-20T20:02:13.229Z,9.77
2018-07-20T20:04:40.830Z,7.67
2018-07-20T20:07:08.523Z,8.23
2018-07-20T20:09:36.189Z,10.27
2018-07-20T20:12:03.850Z,9.13
2018-07-20T20:14:31.481Z,8.90
2018-07-20T20:16:59.148Z,10.20
2018-07-20T20:19:26.832Z,9.43
2018-07-20T20:21:54.522Z,9.53
2018-07-20T20:24:22.245Z,10.63
2018-07-20T20:26:49.922Z,9.77
2018-07-20T20:29:17.649Z,15.63
2018-07-20T20:31:45.328Z,15.30
2018-07-20T20:34:13.002Z,12.77
2018-07-20T20:36:40.573Z,10.70
2018-07-20T20:39:10.739Z,11.30
2018-07-20T20:41:38.569Z,11.67
2018-07-20T20:44:06.291Z,11.80
2018-07-20T20:46:33.875Z,9.70
2018-07-20T20:49:01.541Z,11.43
2018-07-20T20:51:29.198Z,8.40
2018-07-20T20:53:56.887Z,8.60
2018-07-20T20:56:24.588Z,9.37
2018-07-20T20:58:52.351Z,18.03
2018-07-20T21:01:19.951Z,11.47
2018-07-20T21:03:47.837Z,15.87
2018-07-20T21:06:15.439Z,14.07
2018-07-20T21:08:43.063Z,11.70
2018-07-20T21:11:10.672Z,13.10
2018-07-20T21:13:38.331Z,14.83
2018-07-20T21:16:06.341Z,12.07
2018-07-20T21:18:33.909Z,10.53
2018-07-20T21:21:01.591Z,11.93
2018-07-20T21:23:29.253Z,11.10
2018-07-20T21:25:56.956Z,10.00
2018-07-20T21:28:24.627Z,10.47
2018-07-20T21:30:52.363Z,10.73
2018-07-20T21:33:19.993Z,9.70
2018-07-20T21:35:47.748Z,10.60
2018-07-20T21:38:15.396Z,9.37
2018-07-20T21:40:43.066Z,9.67
2018-07-20T21:43:10.755Z,9.37
2018-07-20T21:45:38.395Z,9.40
2018-07-20T21:48:06.357Z,10.40
2018-07-20T21:50:34.072Z,10.13
2018-07-20T21:53:01.764Z,10.43
2018-07-20T21:55:29.495Z,10.00
2018-07-20T21:57:57.149Z,11.13
2018-07-20T22:00:24.874Z,10.23
2018-07-20T22:02:52.489Z,9.90
2018-07-20T22:05:20.148Z,10.90
2018-07-20T22:07:47.801Z,12.43
2018-07-20T22:10:15.460Z,11.03
2018-07-20T22:12:43.178Z,11.20
2018-07-20T22:15:10.895Z,13.20
2018-07-20T22:17:38.511Z,12.03
2018-07-20T22:20:07.726Z,11.10
2018-07-20T22:22:35.401Z,13.53
2018-07-20T22:25:03.688Z,10.83
2018-07-20T22:27:31.285Z,10.70
2018-07-20T22:29:58.997Z,11.77
2018-07-20T22:32:26.740Z,10.20
2018-07-20T22:34:54.366Z,9.33
2018-07-20T22:37:22.004Z,10.97
2018-07-20T22:39:49.783Z,10.97
2018-07-20T22:42:17.479Z,11.27
2018-07-20T22:44:45.117Z,10.67
2018-07-20T22:47:12.666Z,15.63
2018-07-20T22:49:40.267Z,21.50
2018-07-20T22:52:07.821Z,20.33
2018-07-20T22:54:35.504Z,17.27
2018-07-20T22:57:03.196Z,15.57
2018-07-20T22:59:30.850Z,13.50
2018-07-20T23:01:58.560Z,12.77
2018-07-20T23:04:26.189Z,10.80
2018-07-20T23:06:54.707Z,11.30
2018-07-20T23:09:22.294Z,11.47
2018-07-20T23:11:49.874Z,13.30
2018-07-20T23:14:17.407Z,10.73
2018-07-20T23:16:45.092Z,11.27
2018-07-20T23:19:12.662Z,12.33
2018-07-20T23:21:40.350Z,11.67
2018-07-20T23:24:07.956Z,11.00
2018-07-20T23:26:35.591Z,11.40
2018-07-20T23:29:03.258Z,10.53
2018-07-20T23:31:30.952Z,11.40
2018-07-20T23:33:58.599Z,10.53
2018-07-20T23:36:26.252Z,11.20
2018-07-20T23:38:53.961Z,10.47
2018-07-20T23:41:21.554Z,11.27
2018-07-20T23:43:49.162Z,9.47
2018-07-20T23:46:17.078Z,9.70
2018-07-20T23:48:44.707Z,10.17
2018-07-20T23:51:12.280Z,9.47
2018-07-20T23:53:40.024Z,10.00
2018-07-20T23:56:07.692Z,10.23
2018-07-20T23:58:35.386Z,8.37
